Time;durP1;ratioP1;P1;durP2;ratioP2;P2;SDS_P1;SDS_P2;PMS_P1;PMS_P2;Temp;Humidity;BMP_temperature;BMP_pressure;BME280_temperature;BME280_humidity;BME280_pressure;Samples;Min_cycle;Max_cycle;Signal;HPM_P1;HPM_P2
2021/05/19 00:02:17;;;;;;;;;;;9.60;1.00;;;;;;5088988;28;19908;-69
2021/05/19 00:04:43;;;;;;;;;;;9.50;1.00;;;;;;5088159;28;19981;-69
2021/05/19 00:07:08;;;;;;;;;;;9.50;1.00;;;;;;5088925;28;19920;-67
2021/05/19 00:09:34;;;;;;;;;;;9.50;99.90;;;;;;5086881;28;19966;-68
2021/05/19 00:11:59;;;;;;;;;;;9.50;99.90;;;;;;5087733;28;19916;-69
2021/05/19 00:14:25;;;;;;;;;;;9.50;99.90;;;;;;5087735;28;20387;-68
2021/05/19 00:16:50;;;;;;;;;;;9.50;99.90;;;;;;5087417;28;20260;-68
2021/05/19 00:19:17;;;;;;;;;;;9.60;99.90;;;;;;5086073;28;19915;-68
2021/05/19 00:21:42;;;;;;;;;;;9.60;99.90;;;;;;5088780;28;19908;-67
2021/05/19 00:24:08;;;;;;;;;;;9.60;99.90;;;;;;5087566;28;19915;-69
2021/05/19 00:26:34;;;;;;;;;;;9.60;99.90;;;;;;5088444;28;19915;-69
2021/05/19 00:29:00;;;;;;;;;;;9.70;99.90;;;;;;5086813;28;19920;-69
2021/05/19 00:31:30;;;;;;;;;;;9.60;1.00;;;;;;5088005;28;19915;-69
2021/05/19 00:33:55;;;;;;;;;;;9.70;1.00;;;;;;5087564;28;19991;-68
2021/05/19 00:36:21;;;;;;;;;;;9.70;1.00;;;;;;5088840;28;20053;-69
2021/05/19 00:38:46;;;;;;;;;;;9.70;1.00;;;;;;5088510;28;19920;-67
2021/05/19 00:41:12;;;;;;;;;;;9.70;1.00;;;;;;5087491;28;19951;-68
2021/05/19 00:43:38;;;;;;;;;;;9.60;1.00;;;;;;5088655;28;19912;-69
2021/05/19 00:46:05;;;;;;;;;;;9.70;1.00;;;;;;5088241;28;19958;-69
2021/05/19 00:48:30;;;;;;;;;;;9.70;1.00;;;;;;5080880;28;20289;-69
2021/05/19 00:50:56;;;;;;;;;;;9.70;1.00;;;;;;5078884;28;19918;-68
2021/05/19 00:53:21;;;;;;;;;;;9.80;1.00;;;;;;5086682;28;19912;-68
2021/05/19 00:55:47;;;;;;;;;;;9.80;1.00;;;;;;5087504;28;19968;-68
2021/05/19 00:58:13;;;;;;;;;;;9.80;1.00;;;;;;5088277;28;19908;-69
2021/05/19 01:00:39;;;;;;;;;;;9.80;1.00;;;;;;5087978;28;20241;-68
2021/05/19 01:03:05;;;;;;;;;;;9.80;1.00;;;;;;5088811;28;19908;-68
2021/05/19 01:05:45;;;;;;;;;;;9.90;1.00;;;;;;5088086;28;19923;-68
2021/05/19 01:10:55;;;;;;;;;;;9.90;1.00;;;;;;5087672;28;20390;-68
2021/05/19 01:13:21;;;;;;;;;;;9.90;1.00;;;;;;5087757;28;19908;-68
2021/05/19 01:15:47;;;;;;;;;;;9.90;1.00;;;;;;5087270;28;19916;-69
2021/05/19 01:18:12;;;;;;;;;;;9.90;1.00;;;;;;5087205;28;20426;-69
2021/05/19 01:20:38;;;;;;;;;;;9.90;1.00;;;;;;5087447;28;19916;-69
2021/05/19 01:23:04;;;;;;;;;;;9.90;1.00;;;;;;5087742;28;19916;-68
2021/05/19 01:25:30;;;;;;;;;;;9.90;1.00;;;;;;5083483;28;19924;-68
2021/05/19 01:27:57;;;;;;;;;;;9.90;1.00;;;;;;5087415;28;19912;-69
2021/05/19 01:30:23;;;;;;;;;;;9.90;1.00;;;;;;5067756;28;20015;-70
2021/05/19 01:32:49;;;;;;;;;;;9.90;1.00;;;;;;5081676;28;19998;-70
2021/05/19 01:35:14;;;;;;;;;;;9.90;1.00;;;;;;5081265;28;19915;-70
2021/05/19 01:37:40;;;;;;;;;;;9.90;1.00;;;;;;5086980;28;19923;-69
2021/05/19 01:40:07;;;;;;;;;;;10.00;1.00;;;;;;5086645;28;19915;-70
2021/05/19 01:42:32;;;;;;;;;;;9.90;1.00;;;;;;5087527;28;19912;-70
2021/05/19 01:44:57;;;;;;;;;;;9.90;1.00;;;;;;5087712;28;19955;-70
2021/05/19 01:47:34;;;;;;;;;;;9.90;1.00;;;;;;5086370;28;20441;-70
2021/05/19 01:50:00;;;;;;;;;;;9.90;1.00;;;;;;5086097;28;20411;-70
2021/05/19 01:52:26;;;;;;;;;;;9.90;91.40;;;;;;5086999;28;19962;-70
2021/05/19 01:54:52;;;;;;;;;;;9.90;99.90;;;;;;5087273;28;19908;-69
2021/05/19 01:57:17;;;;;;;;;;;9.90;99.90;;;;;;5087689;28;19912;-70
2021/05/19 01:59:43;;;;;;;;;;;9.90;99.90;;;;;;5086431;28;20003;-69
2021/05/19 02:02:08;;;;;;;;;;;9.90;99.90;;;;;;5081301;28;19930;-70
2021/05/19 02:04:34;;;;;;;;;;;9.90;99.90;;;;;;5087246;28;19911;-70
2021/05/19 02:06:59;;;;;;;;;;;9.90;99.90;;;;;;5088229;28;19912;-69
2021/05/19 02:09:26;;;;;;;;;;;9.90;99.90;;;;;;5090684;28;19923;-70
2021/05/19 02:11:52;;;;;;;;;;;9.90;1.00;;;;;;5090362;28;19908;-69
2021/05/19 02:14:18;;;;;;;;;;;9.90;99.90;;;;;;5091393;28;20412;-68
2021/05/19 02:16:44;;;;;;;;;;;9.90;99.90;;;;;;5089118;28;19919;-69
2021/05/19 02:19:10;;;;;;;;;;;9.90;1.00;;;;;;5090753;28;20372;-69
2021/05/19 02:22:02;;;;;;;;;;;9.90;1.00;;;;;;5090247;28;19995;-70
2021/05/19 02:24:27;;;;;;;;;;;9.90;1.00;;;;;;5086526;28;19908;-69
2021/05/19 02:26:53;;;;;;;;;;;9.80;1.00;;;;;;5090645;28;20295;-70
2021/05/19 02:29:18;;;;;;;;;;;9.90;1.00;;;;;;5090642;28;19912;-70
2021/05/19 02:31:44;;;;;;;;;;;9.80;1.00;;;;;;5088991;28;19967;-68
2021/05/19 02:34:10;;;;;;;;;;;9.90;1.00;;;;;;5090824;28;19916;-69
2021/05/19 02:36:36;;;;;;;;;;;9.90;1.00;;;;;;5090485;28;19908;-70
2021/05/19 02:39:03;;;;;;;;;;;9.90;1.00;;;;;;5090420;28;19923;-70
2021/05/19 02:41:28;;;;;;;;;;;9.90;1.00;;;;;;5090892;28;19908;-70
2021/05/19 02:43:54;;;;;;;;;;;9.90;1.00;;;;;;5090606;28;20245;-69
2021/05/19 02:46:19;;;;;;;;;;;9.90;1.00;;;;;;5089103;28;19927;-70
2021/05/19 02:48:45;;;;;;;;;;;9.90;1.00;;;;;;5090890;28;20571;-69
2021/05/19 02:51:10;;;;;;;;;;;9.90;1.00;;;;;;5088156;28;19999;-68
2021/05/19 02:53:36;;;;;;;;;;;9.90;1.00;;;;;;5090384;28;19912;-69
2021/05/19 02:56:04;;;;;;;;;;;9.90;1.00;;;;;;5090281;28;20454;-69
2021/05/19 02:58:30;;;;;;;;;;;9.90;1.00;;;;;;5090775;28;20070;-68
2021/05/19 03:00:55;;;;;;;;;;;9.90;1.00;;;;;;5085724;28;19919;-68
2021/05/19 03:03:21;;;;;;;;;;;9.80;1.00;;;;;;5089749;28;19916;-69
2021/05/19 03:05:46;;;;;;;;;;;9.70;1.00;;;;;;5089494;28;19985;-69
2021/05/19 03:08:12;;;;;;;;;;;9.70;1.00;;;;;;5090553;28;19908;-67
2021/05/19 03:10:37;;;;;;;;;;;9.70;1.00;;;;;;5089417;28;19911;-68
2021/05/19 03:13:03;;;;;;;;;;;9.70;1.00;;;;;;5090267;28;19908;-69
2021/05/19 03:15:29;;;;;;;;;;;9.60;1.00;;;;;;5089232;28;20277;-68
2021/05/19 03:17:56;;;;;;;;;;;9.60;1.00;;;;;;5088169;28;19908;-67
2021/05/19 03:20:22;;;;;;;;;;;9.70;1.00;;;;;;5088988;28;20244;-69
2021/05/19 03:22:47;;;;;;;;;;;9.70;1.00;;;;;;5088827;28;19953;-69
2021/05/19 03:25:13;;;;;;;;;;;9.70;1.00;;;;;;5082888;28;19908;-70
2021/05/19 03:27:38;;;;;;;;;;;9.70;1.00;;;;;;5089452;28;19933;-67
2021/05/19 03:30:05;;;;;;;;;;;9.60;1.00;;;;;;5088961;28;19978;-70
2021/05/19 03:32:31;;;;;;;;;;;9.60;1.00;;;;;;5088404;28;19908;-69
2021/05/19 03:34:56;;;;;;;;;;;9.60;1.00;;;;;;5089654;28;19919;-69
2021/05/19 03:37:22;;;;;;;;;;;9.60;1.00;;;;;;5088925;28;20106;-69
2021/05/19 03:39:47;;;;;;;;;;;9.60;1.00;;;;;;5088877;28;19923;-70
2021/05/19 03:42:13;;;;;;;;;;;9.60;1.00;;;;;;5089378;28;19912;-69
2021/05/19 03:44:38;;;;;;;;;;;9.60;1.00;;;;;;5089526;28;19912;-69
2021/05/19 03:47:04;;;;;;;;;;;9.60;1.00;;;;;;5087863;28;19908;-69
2021/05/19 03:49:35;;;;;;;;;;;9.50;99.90;;;;;;5088858;28;19920;-69
2021/05/19 03:52:00;;;;;;;;;;;9.40;99.90;;;;;;5080437;28;19908;-69
2021/05/19 03:54:26;;;;;;;;;;;9.40;1.00;;;;;;5089189;28;19908;-70
2021/05/19 03:56:51;;;;;;;;;;;9.40;1.00;;;;;;5088641;28;19951;-69
2021/05/19 03:59:17;;;;;;;;;;;9.30;1.00;;;;;;5087947;28;19912;-69
2021/05/19 04:01:43;;;;;;;;;;;9.30;1.00;;;;;;5087158;28;19998;-70
2021/05/19 04:04:08;;;;;;;;;;;9.30;1.00;;;;;;5088943;28;19916;-70
2021/05/19 04:06:34;;;;;;;;;;;9.30;1.00;;;;;;5088807;28;19938;-70
2021/05/19 04:08:59;;;;;;;;;;;9.30;1.00;;;;;;5088643;28;20006;-69
2021/05/19 04:11:25;;;;;;;;;;;9.30;1.00;;;;;;5086771;28;19912;-69
2021/05/19 04:13:50;;;;;;;;;;;9.40;1.00;;;;;;5088426;28;19912;-69
2021/05/19 04:16:16;;;;;;;;;;;9.40;1.00;;;;;;5086398;28;19915;-70
2021/05/19 04:18:42;;;;;;;;;;;9.40;1.00;;;;;;5088513;28;19991;-69
2021/05/19 04:21:07;;;;;;;;;;;9.50;1.00;;;;;;5087379;28;20318;-70
2021/05/19 04:23:33;;;;;;;;;;;9.50;1.00;;;;;;5080656;28;20003;-70
2021/05/19 04:25:59;;;;;;;;;;;9.50;1.00;;;;;;5087463;28;19912;-69
2021/05/19 04:28:24;;;;;;;;;;;9.50;1.00;;;;;;5088511;28;19912;-70
2021/05/19 04:30:50;;;;;;;;;;;9.50;1.00;;;;;;5085393;28;19908;-69
2021/05/19 04:33:18;;;;;;;;;;;9.60;1.00;;;;;;5072954;28;20000;-70
2021/05/19 04:35:43;;;;;;;;;;;9.60;1.00;;;;;;5084104;28;19966;-70
2021/05/19 04:38:09;;;;;;;;;;;9.60;1.00;;;;;;5087728;28;19951;-70
2021/05/19 04:40:34;;;;;;;;;;;9.60;1.00;;;;;;5087134;28;19908;-69
2021/05/19 04:43:06;;;;;;;;;;;9.60;1.00;;;;;;5088392;28;20616;-70
2021/05/19 04:45:31;;;;;;;;;;;9.60;1.00;;;;;;5088379;28;20674;-71
2021/05/19 04:47:57;;;;;;;;;;;9.60;1.00;;;;;;5085550;28;19927;-71
2021/05/19 04:50:22;;;;;;;;;;;9.60;1.00;;;;;;5086411;28;19923;-69
2021/05/19 04:52:48;;;;;;;;;;;9.60;1.00;;;;;;5086480;28;19920;-70
2021/05/19 04:55:13;;;;;;;;;;;9.70;1.00;;;;;;5087608;28;20253;-70
2021/05/19 04:57:39;;;;;;;;;;;9.70;1.00;;;;;;5086313;28;20001;-69
2021/05/19 05:00:06;;;;;;;;;;;9.60;1.00;;;;;;5086127;28;19955;-69
2021/05/19 05:02:31;;;;;;;;;;;9.70;1.00;;;;;;5084586;28;19931;-69
2021/05/19 05:04:57;;;;;;;;;;;9.70;1.00;;;;;;5087684;28;19916;-70
2021/05/19 05:07:23;;;;;;;;;;;9.70;1.00;;;;;;5087413;28;19916;-70
2021/05/19 05:09:49;;;;;;;;;;;9.70;1.00;;;;;;5087950;28;19959;-70
2021/05/19 05:12:15;;;;;;;;;;;9.80;1.00;;;;;;5087987;28;20400;-69
2021/05/19 05:14:40;;;;;;;;;;;9.80;1.00;;;;;;5088635;28;20284;-69
2021/05/19 05:17:06;;;;;;;;;;;9.90;1.00;;;;;;5087382;28;19916;-69
2021/05/19 05:19:31;;;;;;;;;;;9.90;1.00;;;;;;5086918;28;19973;-71
2021/05/19 05:21:57;;;;;;;;;;;10.00;1.00;;;;;;5087167;28;19912;-72
2021/05/19 05:24:23;;;;;;;;;;;10.00;1.00;;;;;;5088302;28;19912;-70
2021/05/19 05:26:48;;;;;;;;;;;10.00;1.00;;;;;;5086469;28;20020;-70
2021/05/19 05:29:14;;;;;;;;;;;10.10;1.00;;;;;;5087495;28;20463;-71
2021/05/19 05:31:39;;;;;;;;;;;10.10;1.00;;;;;;5085470;28;19969;-70
2021/05/19 05:34:05;;;;;;;;;;;10.10;1.00;;;;;;5088062;28;19973;-71
2021/05/19 05:36:30;;;;;;;;;;;10.10;1.00;;;;;;5083482;28;19912;-72
2021/05/19 05:38:56;;;;;;;;;;;10.00;1.00;;;;;;5085186;28;19924;-71
2021/05/19 05:41:21;;;;;;;;;;;10.10;1.00;;;;;;5087548;28;20658;-70
2021/05/19 05:43:47;;;;;;;;;;;10.20;1.00;;;;;;5090800;28;20225;-70
2021/05/19 05:46:12;;;;;;;;;;;10.20;1.00;;;;;;5089436;28;19930;-71
2021/05/19 05:48:40;;;;;;;;;;;10.20;1.00;;;;;;5083054;28;20031;-70
2021/05/19 05:51:05;;;;;;;;;;;10.20;1.00;;;;;;5078997;28;19998;-70
2021/05/19 05:53:31;;;;;;;;;;;10.20;1.00;;;;;;5088264;28;20380;-70
2021/05/19 05:55:56;;;;;;;;;;;10.20;1.00;;;;;;5090864;28;20555;-70
2021/05/19 05:58:22;;;;;;;;;;;10.30;1.00;;;;;;5091816;28;19919;-70
2021/05/19 06:00:48;;;;;;;;;;;10.40;1.00;;;;;;5089814;28;20397;-70
2021/05/19 06:03:13;;;;;;;;;;;10.50;1.00;;;;;;5091681;28;19912;-71
2021/05/19 06:05:39;;;;;;;;;;;10.50;99.90;;;;;;5091468;28;19912;-71
2021/05/19 06:08:08;;;;;;;;;;;10.50;99.90;;;;;;5094533;28;19951;-70
2021/05/19 06:10:33;;;;;;;;;;;10.50;99.90;;;;;;5279623;22;19955;-70
2021/05/19 06:12:59;;;;;;;;;;;10.60;99.90;;;;;;5050848;28;19924;-70
2021/05/19 06:15:24;;;;;;;;;;;10.60;99.90;;;;;;5043943;28;20010;-72
2021/05/19 06:17:50;;;;;;;;;;;10.70;99.90;;;;;;5037542;28;19909;-70
2021/05/19 06:20:15;;;;;;;;;;;10.70;99.90;;;;;;5039285;28;20007;-71
2021/05/19 06:22:41;;;;;;;;;;;10.80;99.90;;;;;;5039928;28;19913;-72
2021/05/19 06:25:07;;;;;;;;;;;10.90;99.90;;;;;;5038652;28;20274;-72
2021/05/19 06:27:33;;;;;;;;;;;11.00;99.90;;;;;;5043472;28;19947;-72
2021/05/19 06:29:58;;;;;;;;;;;11.10;99.90;;;;;;5040707;28;19979;-72
2021/05/19 06:32:24;;;;;;;;;;;11.20;99.90;;;;;;5038116;28;19956;-72
2021/05/19 06:34:49;;;;;;;;;;;11.30;99.90;;;;;;5041458;28;19932;-72
2021/05/19 06:37:15;;;;;;;;;;;11.50;99.90;;;;;;5039628;28;19928;-72
2021/05/19 06:39:40;;;;;;;;;;;11.70;1.00;;;;;;5039357;28;19913;-71
2021/05/19 06:42:06;;;;;;;;;;;11.70;1.00;;;;;;5040742;28;19955;-71
2021/05/19 06:44:31;;;;;;;;;;;12.00;1.00;;;;;;5038233;28;19994;-73
2021/05/19 06:46:57;;;;;;;;;;;12.10;99.90;;;;;;5019680;28;20538;-71
2021/05/19 06:49:22;;;;;;;;;;;12.40;1.00;;;;;;5041193;28;19935;-71
2021/05/19 06:51:48;;;;;;;;;;;12.70;99.90;;;;;;5031682;28;20514;-71
2021/05/19 06:54:14;;;;;;;;;;;12.90;99.90;;;;;;5036174;28;19928;-71
2021/05/19 06:56:46;;;;;;;;;;;13.30;1.00;;;;;;5038120;28;19995;-71
2021/05/19 06:59:12;;;;;;;;;;;13.70;1.00;;;;;;5038949;28;19909;-72
2021/05/19 07:01:38;;;;;;;;;;;14.10;1.00;;;;;;5037101;28;20389;-74
2021/05/19 07:04:04;;;;;;;;;;;14.40;99.90;;;;;;5041571;28;19977;-72
2021/05/19 07:06:29;;;;;;;;;;;14.70;99.10;;;;;;5050215;28;20362;-72
2021/05/19 07:08:55;;;;;;;;;;;14.90;1.00;;;;;;5050030;28;19916;-71
2021/05/19 07:11:20;;;;;;;;;;;15.00;1.00;;;;;;5023942;28;19921;-70
2021/05/19 07:13:46;;;;;;;;;;;14.90;1.00;;;;;;5030058;28;19921;-72
2021/05/19 07:16:13;;;;;;;;;;;14.70;1.00;;;;;;5037222;28;19961;-71
2021/05/19 07:18:39;;;;;;;;;;;14.70;1.00;;;;;;5050172;28;19909;-71
2021/05/19 07:21:04;;;;;;;;;;;14.60;1.00;;;;;;5045266;28;19923;-71
2021/05/19 07:23:30;;;;;;;;;;;14.60;1.00;;;;;;5050120;28;19909;-73
2021/05/19 07:25:55;;;;;;;;;;;14.60;1.00;;;;;;5046525;28;19916;-70
2021/05/19 07:28:21;;;;;;;;;;;14.50;1.00;;;;;;5034418;28;19912;-70
2021/05/19 07:30:48;;;;;;;;;;;14.50;1.00;;;;;;5037670;28;20003;-74
2021/05/19 07:33:14;;;;;;;;;;;14.40;1.00;;;;;;5030489;28;19913;-70
2021/05/19 07:35:39;;;;;;;;;;;14.30;1.00;;;;;;5030082;28;20362;-71
2021/05/19 07:38:06;;;;;;;;;;;14.10;1.00;;;;;;5032260;28;19928;-71
2021/05/19 07:40:32;;;;;;;;;;;14.00;1.00;;;;;;5033637;28;19909;-71
2021/05/19 07:42:58;;;;;;;;;;;14.00;1.00;;;;;;5029796;28;19910;-71
2021/05/19 07:45:23;;;;;;;;;;;14.10;1.00;;;;;;5012618;28;19929;-73
2021/05/19 07:47:49;;;;;;;;;;;14.30;1.00;;;;;;5030478;28;19909;-72
2021/05/19 07:50:15;;;;;;;;;;;14.70;1.00;;;;;;5049364;28;19962;-73
2021/05/19 07:52:40;;;;;;;;;;;15.00;1.00;;;;;;5050523;28;19912;-70
2021/05/19 07:55:07;;;;;;;;;;;15.40;1.00;;;;;;5050843;28;20043;-73
2021/05/19 08:01:00;;;;;;;;;;;16.10;99.90;;;;;;5048048;28;20288;-71
2021/05/19 08:02:53;;;;;;;;;;;16.30;99.90;;;;;;5035861;28;19921;-72
2021/05/19 08:05:18;;;;;;;;;;;16.40;99.90;;;;;;5034980;28;19909;-70
2021/05/19 08:07:44;;;;;;;;;;;16.80;99.90;;;;;;5029207;28;19925;-70
2021/05/19 08:10:10;;;;;;;;;;;17.40;99.90;;;;;;5028354;28;19917;-70
2021/05/19 08:12:35;;;;;;;;;;;17.90;99.90;;;;;;5028732;28;19909;-70
2021/05/19 08:15:01;;;;;;;;;;;18.30;99.90;;;;;;5029800;28;19989;-69
2021/05/19 08:17:26;;;;;;;;;;;18.80;99.90;;;;;;5027588;28;20297;-69
2021/05/19 08:19:52;;;;;;;;;;;18.80;99.90;;;;;;5028292;28;19909;-70
2021/05/19 08:22:17;;;;;;;;;;;18.60;99.90;;;;;;5037797;28;20437;-69
2021/05/19 08:24:43;;;;;;;;;;;18.20;99.90;;;;;;5045703;28;19913;-70
2021/05/19 08:27:09;;;;;;;;;;;18.10;99.90;;;;;;5035770;28;20359;-70
2021/05/19 08:29:35;;;;;;;;;;;18.00;99.90;;;;;;5028272;28;19939;-70
2021/05/19 08:32:01;;;;;;;;;;;18.20;99.90;;;;;;5032199;28;19962;-70
2021/05/19 08:34:26;;;;;;;;;;;19.00;99.90;;;;;;5038087;28;20024;-70
2021/05/19 08:36:52;;;;;;;;;;;20.20;99.90;;;;;;5032443;28;19909;-70
2021/05/19 08:39:18;;;;;;;;;;;20.90;99.90;;;;;;5028603;28;19984;-70
2021/05/19 08:41:45;;;;;;;;;;;21.50;99.90;;;;;;5028344;28;19915;-70
2021/05/19 08:44:10;;;;;;;;;;;22.10;99.90;;;;;;5028466;28;19944;-71
2021/05/19 08:46:41;;;;;;;;;;;23.30;99.90;;;;;;5027482;28;19952;-71
2021/05/19 08:49:08;;;;;;;;;;;25.20;99.90;;;;;;5039910;28;20459;-71
2021/05/19 08:51:34;;;;;;;;;;;27.20;99.90;;;;;;5047907;28;19913;-71
2021/05/19 08:54:01;;;;;;;;;;;27.90;99.90;;;;;;5040586;28;19916;-70
2021/05/19 08:56:27;;;;;;;;;;;28.50;99.90;;;;;;5048321;28;19909;-71
2021/05/19 08:58:52;;;;;;;;;;;28.90;99.90;;;;;;5044547;28;19943;-71
2021/05/19 09:01:19;;;;;;;;;;;29.20;99.90;;;;;;5036967;28;20016;-72
2021/05/19 09:03:44;;;;;;;;;;;30.30;99.90;;;;;;5034415;28;19920;-71
2021/05/19 09:06:19;;;;;;;;;;;30.70;99.90;;;;;;5047240;28;20003;-70
2021/05/19 09:08:45;;;;;;;;;;;31.70;99.90;;;;;;5048782;28;19919;-71
2021/05/19 09:11:13;;;;;;;;;;;32.50;99.90;;;;;;5037355;28;19920;-70
2021/05/19 09:13:45;;;;;;;;;;;33.20;99.90;;;;;;5048303;28;20004;-70
2021/05/19 09:16:14;;;;;;;;;;;34.50;99.90;;;;;;5045131;28;20016;-71
2021/05/19 09:18:53;;;;;;;;;;;34.50;99.90;;;;;;5048384;28;19912;-70
2021/05/19 09:21:32;;;;;;;;;;;33.20;99.90;;;;;;5047361;28;19909;-70
2021/05/19 09:23:58;;;;;;;;;;;31.90;99.90;;;;;;5044717;28;20310;-70
2021/05/19 09:26:24;;;;;;;;;;;30.10;99.90;;;;;;5035628;28;20011;-69
2021/05/19 09:28:49;;;;;;;;;;;29.20;99.90;;;;;;5028003;28;20012;-69
2021/05/19 09:31:19;;;;;;;;;;;29.40;99.90;;;;;;5026056;28;19913;-70
2021/05/19 09:33:45;;;;;;;;;;;30.00;99.90;;;;;;5028622;28;19913;-70
2021/05/19 09:36:21;;;;;;;;;;;31.20;99.90;;;;;;5027354;28;19913;-71
2021/05/19 09:38:49;;;;;;;;;;;30.60;99.90;;;;;;5028226;28;19909;-72
2021/05/19 09:41:15;;;;;;;;;;;29.30;99.90;;;;;;5027157;28;19940;-71
2021/05/19 09:43:40;;;;;;;;;;;28.50;99.90;;;;;;5028402;28;19963;-72
2021/05/19 09:46:13;;;;;;;;;;;29.20;99.90;;;;;;5026303;28;20735;-72
2021/05/19 09:48:39;;;;;;;;;;;29.40;99.90;;;;;;5016785;28;20024;-71
2021/05/19 09:51:04;;;;;;;;;;;28.30;99.90;;;;;;5033567;28;19996;-71
2021/05/19 09:53:33;;;;;;;;;;;26.90;99.90;;;;;;5027570;28;20398;-73
2021/05/19 09:55:59;;;;;;;;;;;26.30;99.90;;;;;;5027340;28;20274;-72
2021/05/19 09:58:30;;;;;;;;;;;27.20;99.90;;;;;;5027366;28;19957;-71
2021/05/19 10:00:56;;;;;;;;;;;29.40;99.90;;;;;;5025689;28;19922;-71
2021/05/19 10:03:21;;;;;;;;;;;31.90;82.30;;;;;;5043106;28;19913;-71
2021/05/19 10:05:52;;;;;;;;;;;32.00;70.90;;;;;;5028991;28;19913;-72
2021/05/19 10:08:18;;;;;;;;;;;29.60;55.40;;;;;;5027863;28;19909;-71
2021/05/19 10:10:43;;;;;;;;;;;26.90;41.80;;;;;;5035288;28;20262;-70
2021/05/19 10:13:09;;;;;;;;;;;24.40;19.80;;;;;;5036524;28;19913;-71
2021/05/19 10:15:35;;;;;;;;;;;22.10;11.50;;;;;;5035170;28;20234;-71
2021/05/19 10:18:01;;;;;;;;;;;20.70;9.50;;;;;;5031458;28;19921;-71
2021/05/19 10:20:28;;;;;;;;;;;19.60;8.40;;;;;;5035483;28;20308;-72
2021/05/19 10:22:54;;;;;;;;;;;19.00;10.40;;;;;;5039350;28;19931;-72
2021/05/19 10:25:32;;;;;;;;;;;18.80;9.90;;;;;;5034539;28;19925;-72
2021/05/19 10:28:00;;;;;;;;;;;19.10;11.20;;;;;;5040133;28;19916;-72
2021/05/19 10:30:43;;;;;;;;;;;20.10;10.20;;;;;;5033202;28;19924;-71
2021/05/19 10:33:28;;;;;;;;;;;22.60;12.50;;;;;;5030808;28;19999;-73
2021/05/19 10:35:54;;;;;;;;;;;25.00;17.30;;;;;;5167639;22;19932;-71
2021/05/19 10:38:23;;;;;;;;;;;27.30;17.90;;;;;;5032184;28;19936;-73
2021/05/19 10:40:52;;;;;;;;;;;27.90;18.70;;;;;;5029881;28;19917;-73
2021/05/19 10:43:18;;;;;;;;;;;27.20;15.60;;;;;;5031119;28;19956;-72
2021/05/19 10:45:52;;;;;;;;;;;26.50;12.10;;;;;;5030472;28;19936;-73
2021/05/19 10:48:34;;;;;;;;;;;25.00;6.20;;;;;;5025146;28;19993;-71
2021/05/19 10:51:18;;;;;;;;;;;24.50;5.10;;;;;;4991543;28;19924;-71
2021/05/19 11:00:01;;;;;;;;;;;25.80;7.20;;;;;;5011072;28;19960;-72
2021/05/19 11:02:46;;;;;;;;;;;25.60;6.80;;;;;;4997994;28;19921;-71
2021/05/19 11:05:12;;;;;;;;;;;26.00;8.70;;;;;;5004355;28;20304;-71
2021/05/19 11:07:43;;;;;;;;;;;26.20;8.20;;;;;;5009960;28;19918;-72
2021/05/19 11:10:27;;;;;;;;;;;25.60;4.80;;;;;;5008685;28;19975;-72
2021/05/19 11:12:55;;;;;;;;;;;24.90;2.00;;;;;;5009110;28;19910;-73
2021/05/19 11:18:31;;;;;;;;;;;23.80;1.00;;;;;;5006545;28;19910;-73
2021/05/19 11:20:58;;;;;;;;;;;23.40;1.00;;;;;;5007437;28;20015;-71
2021/05/19 11:23:23;;;;;;;;;;;23.50;1.00;;;;;;5008812;28;20007;-72
2021/05/19 11:25:49;;;;;;;;;;;23.60;1.00;;;;;;5008712;28;20007;-71
2021/05/19 11:28:23;;;;;;;;;;;23.50;1.00;;;;;;5008963;28;19910;-72
2021/05/19 11:30:49;;;;;;;;;;;23.30;1.00;;;;;;5007664;28;19940;-72
2021/05/19 11:33:18;;;;;;;;;;;23.00;1.00;;;;;;5008262;28;19931;-72
2021/05/19 11:35:48;;;;;;;;;;;22.80;1.00;;;;;;5008412;28;19922;-72
2021/05/19 11:38:14;;;;;;;;;;;22.50;1.00;;;;;;5008529;28;19913;-71
2021/05/19 11:40:40;;;;;;;;;;;22.30;1.00;;;;;;5007637;28;19917;-74
2021/05/19 11:43:05;;;;;;;;;;;22.00;1.00;;;;;;5009358;28;20008;-71
2021/05/19 11:45:31;;;;;;;;;;;21.80;1.00;;;;;;5009574;28;19957;-73
2021/05/19 11:47:57;;;;;;;;;;;21.60;1.00;;;;;;5007937;28;20259;-71
2021/05/19 11:50:24;;;;;;;;;;;21.40;1.00;;;;;;5008440;28;19913;-72
2021/05/19 11:53:10;;;;;;;;;;;21.50;1.00;;;;;;5009485;28;19909;-71
2021/05/19 11:55:36;;;;;;;;;;;21.70;1.00;;;;;;5009641;28;19910;-72
2021/05/19 11:58:04;;;;;;;;;;;21.90;1.00;;;;;;5009552;28;19920;-70
2021/05/19 12:00:31;;;;;;;;;;;22.10;1.00;;;;;;5008561;28;19991;-71
2021/05/19 12:02:56;;;;;;;;;;;22.40;1.00;;;;;;5007965;28;19909;-71
2021/05/19 12:05:23;;;;;;;;;;;22.70;1.00;;;;;;5009593;28;20443;-71
2021/05/19 12:07:49;;;;;;;;;;;22.60;1.00;;;;;;5009363;28;20478;-71
2021/05/19 12:10:15;;;;;;;;;;;22.50;1.00;;;;;;5008362;28;20290;-71
2021/05/19 12:12:41;;;;;;;;;;;22.30;1.00;;;;;;5009107;28;19917;-70
2021/05/19 12:15:07;;;;;;;;;;;22.30;1.00;;;;;;5008367;28;20026;-72
2021/05/19 12:17:32;;;;;;;;;;;22.10;1.00;;;;;;5007037;28;20301;-72
2021/05/19 12:19:58;;;;;;;;;;;21.80;1.00;;;;;;5008912;28;19917;-72
2021/05/19 12:22:24;;;;;;;;;;;21.60;1.00;;;;;;5007934;28;19980;-71
2021/05/19 12:24:51;;;;;;;;;;;21.40;1.00;;;;;;5009332;28;19910;-72
2021/05/19 12:27:17;;;;;;;;;;;21.30;1.00;;;;;;5008627;28;19909;-71
2021/05/19 12:29:48;;;;;;;;;;;21.20;1.00;;;;;;5008257;28;19921;-71
2021/05/19 12:32:20;;;;;;;;;;;21.20;1.00;;;;;;5002796;28;19910;-72
2021/05/19 12:35:08;;;;;;;;;;;21.20;1.00;;;;;;5009457;28;20000;-72
2021/05/19 12:37:46;;;;;;;;;;;20.90;1.00;;;;;;5028481;28;20508;-70
2021/05/19 12:40:13;;;;;;;;;;;20.90;1.00;;;;;;5027598;28;19939;-69
2021/05/19 12:42:39;;;;;;;;;;;21.00;1.00;;;;;;5028397;28;20302;-71
2021/05/19 12:45:05;;;;;;;;;;;20.70;1.00;;;;;;5028341;28;19920;-72
2021/05/19 12:47:30;;;;;;;;;;;20.40;1.00;;;;;;5009030;28;19913;-70
2021/05/19 12:50:03;;;;;;;;;;;19.90;1.00;;;;;;5008613;28;19937;-71
2021/05/19 12:52:29;;;;;;;;;;;19.70;1.00;;;;;;5007439;28;20374;-71
2021/05/19 12:54:55;;;;;;;;;;;19.60;1.00;;;;;;5008361;28;20338;-72
2021/05/19 12:57:28;;;;;;;;;;;19.60;1.00;;;;;;5008171;28;19916;-71
2021/05/19 13:00:02;;;;;;;;;;;19.80;1.00;;;;;;5007476;28;19956;-72
2021/05/19 13:02:48;;;;;;;;;;;20.00;1.00;;;;;;5006546;28;19952;-72
2021/05/19 13:05:18;;;;;;;;;;;20.00;1.00;;;;;;5007790;28;19910;-69
2021/05/19 13:07:45;;;;;;;;;;;20.10;1.00;;;;;;5008568;28;19918;-71
2021/05/19 13:10:16;;;;;;;;;;;20.20;1.00;;;;;;5007132;28;20147;-70
2021/05/19 13:13:10;;;;;;;;;;;20.00;1.00;;;;;;5008513;28;20351;-70
2021/05/19 13:15:43;;;;;;;;;;;19.80;1.00;;;;;;5007057;28;19917;-71
2021/05/19 13:21:11;;;;;;;;;;;19.50;1.00;;;;;;4994033;28;19925;-71
2021/05/19 13:23:38;;;;;;;;;;;19.60;1.00;;;;;;4990756;28;20000;-70
2021/05/19 13:26:07;;;;;;;;;;;19.70;1.00;;;;;;5007611;28;19918;-69
2021/05/19 13:28:36;;;;;;;;;;;19.90;1.00;;;;;;5008766;28;19913;-70
2021/05/19 13:31:01;;;;;;;;;;;20.20;1.00;;;;;;5006121;28;19916;-71
2021/05/19 13:33:34;;;;;;;;;;;20.30;1.00;;;;;;5008921;28;19909;-71
2021/05/19 13:38:46;;;;;;;;;;;20.30;1.00;;;;;;5008745;28;19909;-69
2021/05/19 13:41:11;;;;;;;;;;;20.20;1.00;;;;;;5006313;28;19917;-70
2021/05/19 13:43:37;;;;;;;;;;;20.10;1.00;;;;;;5008269;28;19913;-70
2021/05/19 13:46:03;;;;;;;;;;;19.90;1.00;;;;;;5006456;28;19920;-69
2021/05/19 13:48:29;;;;;;;;;;;19.80;1.00;;;;;;5008175;28;19909;-71
2021/05/19 13:50:55;;;;;;;;;;;19.90;1.00;;;;;;5006882;28;19941;-71
2021/05/19 13:53:20;;;;;;;;;;;19.90;5.80;;;;;;5007923;28;19917;-68
2021/05/19 13:55:45;;;;;;;;;;;20.00;21.90;;;;;;5008296;28;19909;-70
2021/05/19 13:58:12;;;;;;;;;;;19.90;46.70;;;;;;5007938;28;19955;-69
2021/05/19 14:00:38;;;;;;;;;;;19.70;50.90;;;;;;5007445;28;19918;-70
2021/05/19 14:03:04;;;;;;;;;;;19.30;54.10;;;;;;5008039;28;19974;-70
2021/05/19 14:05:29;;;;;;;;;;;18.80;43.30;;;;;;5011843;28;19928;-70
2021/05/19 14:07:55;;;;;;;;;;;18.80;44.90;;;;;;4993786;28;19919;-69
2021/05/19 14:10:23;;;;;;;;;;;18.90;49.10;;;;;;5010778;28;19913;-70
2021/05/19 14:12:56;;;;;;;;;;;19.00;50.70;;;;;;4991746;28;19910;-68
2021/05/19 14:15:34;;;;;;;;;;;19.10;52.50;;;;;;4999045;28;19921;-70
2021/05/19 14:20:50;;;;;;;;;;;19.30;55.30;;;;;;5010659;28;19917;-68
2021/05/19 14:28:42;;;;;;;;;;;19.20;54.60;;;;;;5011888;28;20025;-68
2021/05/19 14:31:07;;;;;;;;;;;19.10;52.00;;;;;;5008934;28;20083;-70
2021/05/19 14:33:33;;;;;;;;;;;18.80;52.70;;;;;;5011553;28;19914;-70
2021/05/19 15:00:05;;;;;;;;;;;18.80;32.90;;;;;;5009961;28;19925;-72
2021/05/19 15:02:31;;;;;;;;;;;18.40;31.70;;;;;;5010966;28;19916;-76
2021/05/19 15:04:57;;;;;;;;;;;18.20;30.90;;;;;;5010828;28;20371;-72
2021/05/19 15:07:23;;;;;;;;;;;18.10;31.50;;;;;;5010580;28;19909;-73
2021/05/19 15:09:48;;;;;;;;;;;18.10;34.40;;;;;;4992656;28;19920;-73
2021/05/19 15:12:14;;;;;;;;;;;18.00;31.60;;;;;;5009530;28;19913;-73
2021/05/19 15:14:39;;;;;;;;;;;17.90;31.80;;;;;;5010563;28;19989;-71
2021/05/19 15:17:05;;;;;;;;;;;17.80;33.90;;;;;;5009146;28;19909;-73
2021/05/19 15:19:30;;;;;;;;;;;17.80;32.60;;;;;;5010247;28;19917;-73
2021/05/19 15:21:56;;;;;;;;;;;17.80;32.70;;;;;;5010424;28;19917;-74
2021/05/19 15:24:22;;;;;;;;;;;17.80;35.00;;;;;;5009815;28;19913;-72